createdAt,value
2022-10-15T00:01:48.769Z,161.30
2022-10-15T00:04:17.637Z,262.20
2022-10-15T00:06:46.109Z,439.70
2022-10-15T00:09:14.550Z,232.03
2022-10-15T00:11:43.045Z,178.53
2022-10-15T00:14:12.910Z,107.70
2022-10-15T00:16:42.079Z,43.10
2022-10-15T00:19:11.453Z,136.40
2022-10-15T00:21:40.571Z,123.90
2022-10-15T00:24:09.478Z,56.13
2022-10-15T00:26:38.216Z,67.70
2022-10-15T00:29:10.141Z,320.47
2022-10-15T00:31:40.164Z,456.40
2022-10-15T00:34:08.924Z,229.53
2022-10-15T00:36:38.158Z,85.70
2022-10-15T00:39:08.050Z,109.67
2022-10-15T00:41:38.899Z,61.70
2022-10-15T00:44:40.491Z,90.00
2022-10-15T00:47:16.542Z,46.97
2022-10-15T00:49:49.549Z,52.73
2022-10-15T00:52:24.528Z,44.10
2022-10-15T00:54:59.177Z,55.03
2022-10-15T00:57:28.276Z,41.50
2022-10-15T01:00:03.105Z,31.70
2022-10-15T01:02:34.242Z,109.67
2022-10-15T01:05:02.837Z,139.93
2022-10-15T01:07:31.294Z,47.37
2022-10-15T01:09:59.862Z,90.83
2022-10-15T01:12:37.368Z,38.23
2022-10-15T01:15:12.106Z,38.17
2022-10-15T01:17:48.585Z,92.40
2022-10-15T01:21:01.688Z,74.17
2022-10-15T01:24:08.586Z,49.50
2022-10-15T01:27:11.176Z,41.77
2022-10-15T01:29:59.870Z,49.17
2022-10-15T01:32:31.493Z,47.00
2022-10-15T01:35:08.277Z,62.77
2022-10-15T01:37:40.517Z,70.17
2022-10-15T01:40:16.810Z,73.63
2022-10-15T01:42:52.850Z,87.07
2022-10-15T01:45:27.142Z,84.07
2022-10-15T01:48:14.670Z,85.77
2022-10-15T01:50:48.166Z,83.10
2022-10-15T01:53:26.517Z,79.63
2022-10-15T01:55:58.968Z,80.23
2022-10-15T01:58:30.914Z,88.73
2022-10-15T02:01:00.635Z,81.07
2022-10-15T02:03:30.559Z,76.73
2022-10-15T02:06:08.446Z,82.67
2022-10-15T02:08:44.927Z,80.57
2022-10-15T02:11:16.400Z,80.40
2022-10-15T02:13:53.356Z,77.10
2022-10-15T02:16:29.099Z,75.63
2022-10-15T02:19:05.740Z,65.53
2022-10-15T02:21:40.443Z,66.77
2022-10-15T02:24:14.748Z,69.50
2022-10-15T02:26:44.763Z,68.33
2022-10-15T02:29:21.296Z,69.27
2022-10-15T02:31:51.813Z,71.00
2022-10-15T02:34:24.080Z,68.33
2022-10-15T02:36:54.472Z,67.27
2022-10-15T02:39:25.181Z,75.00
2022-10-15T02:41:55.319Z,75.10
2022-10-15T02:44:24.053Z,71.93
2022-10-15T02:46:52.583Z,75.90
2022-10-15T02:49:23.783Z,78.63
2022-10-15T02:51:53.811Z,78.07
2022-10-15T02:54:22.389Z,69.70
2022-10-15T02:56:50.769Z,73.10
2022-10-15T02:59:22.095Z,80.80
2022-10-15T03:01:51.652Z,70.33
2022-10-15T03:04:20.328Z,75.20
2022-10-15T03:06:51.007Z,80.53
2022-10-15T03:09:20.367Z,71.57
2022-10-15T03:11:49.410Z,75.73
2022-10-15T03:14:18.034Z,78.37
2022-10-15T03:16:46.706Z,72.23
2022-10-15T03:19:15.201Z,76.17
2022-10-15T03:21:46.187Z,73.67
2022-10-15T03:24:19.351Z,71.23
2022-10-15T03:26:47.877Z,68.73
2022-10-15T03:29:16.349Z,80.33
2022-10-15T03:31:54.489Z,77.10
2022-10-15T03:34:23.368Z,71.37
2022-10-15T03:36:52.037Z,64.83
2022-10-15T03:39:21.991Z,72.33
2022-10-15T03:41:54.810Z,67.70
2022-10-15T03:44:30.299Z,68.47
2022-10-15T03:47:09.032Z,75.13
2022-10-15T03:49:49.007Z,62.97
2022-10-15T03:52:18.594Z,65.07
2022-10-15T03:54:50.060Z,71.97
2022-10-15T03:57:21.560Z,74.47
2022-10-15T03:59:55.307Z,74.33
2022-10-15T04:02:26.861Z,71.10
2022-10-15T04:04:57.777Z,64.00
2022-10-15T04:07:27.295Z,72.57
2022-10-15T04:09:57.112Z,64.20
2022-10-15T04:12:35.426Z,68.13
2022-10-15T04:15:05.089Z,64.27
2022-10-15T04:17:34.071Z,69.80
2022-10-15T04:20:03.028Z,67.30
2022-10-15T04:22:32.182Z,67.50
2022-10-15T04:25:05.199Z,60.07
2022-10-15T04:27:34.009Z,66.07
2022-10-15T04:30:15.338Z,69.87
2022-10-15T04:32:49.210Z,69.37
2022-10-15T04:35:18.211Z,69.90
2022-10-15T04:38:05.055Z,69.33
2022-10-15T04:41:05.930Z,76.87
2022-10-15T04:43:48.665Z,78.10
2022-10-15T04:46:17.108Z,74.17
2022-10-15T04:48:46.026Z,73.40
2022-10-15T04:51:18.162Z,75.80
2022-10-15T04:54:02.903Z,80.70
2022-10-15T04:56:34.069Z,78.10
2022-10-15T04:59:02.719Z,85.70
2022-10-15T05:01:33.803Z,80.90
2022-10-15T05:04:10.126Z,83.53
2022-10-15T05:06:38.767Z,86.33
2022-10-15T05:09:18.313Z,88.93
2022-10-15T05:11:52.994Z,99.33
2022-10-15T05:14:21.650Z,98.33
2022-10-15T05:17:06.194Z,109.40
2022-10-15T05:19:40.585Z,100.27
2022-10-15T05:22:14.851Z,117.10
2022-10-15T05:24:49.776Z,105.13
2022-10-15T05:27:36.704Z,100.10
2022-10-15T05:30:07.874Z,105.20
2022-10-15T05:32:42.323Z,110.87
2022-10-15T05:35:13.534Z,96.37
2022-10-15T05:37:54.174Z,115.13
2022-10-15T05:40:23.013Z,108.90
2022-10-15T05:43:25.552Z,103.73
2022-10-15T05:45:55.481Z,97.83
2022-10-15T05:48:24.768Z,114.77
2022-10-15T05:50:53.780Z,104.07
2022-10-15T05:53:28.334Z,109.63
2022-10-15T05:56:01.963Z,113.20
2022-10-15T05:58:37.598Z,98.20
2022-10-15T06:01:09.584Z,105.67
2022-10-15T06:03:40.584Z,105.93
2022-10-15T06:06:16.471Z,108.17
2022-10-15T06:08:45.322Z,107.20
2022-10-15T06:11:15.341Z,113.00
2022-10-15T06:13:47.215Z,114.00
2022-10-15T06:16:20.922Z,118.43
2022-10-15T06:18:53.781Z,115.57
2022-10-15T06:21:22.709Z,111.97
2022-10-15T06:23:51.174Z,114.73
2022-10-15T06:26:19.792Z,112.03
2022-10-15T06:28:51.203Z,113.80
2022-10-15T06:31:19.734Z,117.03
2022-10-15T06:33:48.538Z,108.37
2022-10-15T06:36:17.623Z,108.37
2022-10-15T06:38:48.443Z,106.87
2022-10-15T06:41:17.156Z,103.87
2022-10-15T06:43:46.295Z,103.87
2022-10-15T06:46:16.795Z,100.93
2022-10-15T06:48:45.481Z,94.90
2022-10-15T06:51:14.042Z,101.67
2022-10-15T06:53:48.938Z,108.23
2022-10-15T06:56:17.592Z,93.67
2022-10-15T06:58:46.582Z,86.80
2022-10-15T07:01:17.179Z,99.63
2022-10-15T07:03:45.681Z,94.20
2022-10-15T07:06:15.047Z,85.63
2022-10-15T07:08:45.081Z,85.67
2022-10-15T07:11:13.749Z,83.27
2022-10-15T07:13:43.667Z,90.03
2022-10-15T07:16:13.881Z,92.20
2022-10-15T07:18:43.903Z,78.47
2022-10-15T07:21:13.144Z,84.27
2022-10-15T07:23:41.673Z,84.80
2022-10-15T07:26:10.185Z,82.47
2022-10-15T07:28:38.607Z,82.17
2022-10-15T07:31:08.813Z,77.33
2022-10-15T07:33:37.905Z,88.90
2022-10-15T07:36:09.994Z,75.40
2022-10-15T07:38:40.234Z,72.03
2022-10-15T07:41:11.098Z,66.63
2022-10-15T07:43:44.344Z,68.47
2022-10-15T07:46:12.972Z,64.60
2022-10-15T07:48:41.984Z,64.80
2022-10-15T07:51:13.290Z,69.83
2022-10-15T07:53:42.002Z,72.93
2022-10-15T07:56:13.898Z,70.30
2022-10-15T07:58:43.292Z,61.67
2022-10-15T08:01:13.187Z,67.57
2022-10-15T08:03:42.000Z,59.50
2022-10-15T08:06:10.752Z,62.20
2022-10-15T08:08:41.237Z,59.00
2022-10-15T08:11:12.421Z,57.77
2022-10-15T08:13:42.470Z,56.63
2022-10-15T08:16:13.087Z,50.93
2022-10-15T08:18:43.155Z,45.87
2022-10-15T08:21:12.491Z,41.00
2022-10-15T08:23:42.272Z,37.77
2022-10-15T08:26:11.199Z,35.33
2022-10-15T08:28:39.789Z,41.30
2022-10-15T08:31:09.383Z,33.30
2022-10-15T08:33:39.177Z,30.80
2022-10-15T08:36:09.144Z,28.23
2022-10-15T08:38:37.665Z,22.13
2022-10-15T08:41:21.538Z,27.87
2022-10-15T08:43:50.600Z,24.70
2022-10-15T08:46:24.224Z,22.90
2022-10-15T08:48:55.911Z,19.80
2022-10-15T08:51:29.738Z,19.60
2022-10-15T08:54:02.377Z,20.30
2022-10-15T08:56:36.974Z,15.50
2022-10-15T08:59:17.816Z,15.70
2022-10-15T09:01:52.513Z,14.53
2022-10-15T09:04:31.825Z,10.60
2022-10-15T09:07:06.662Z,10.37
2022-10-15T09:09:41.635Z,10.20
2022-10-15T09:12:27.976Z,11.37
2022-10-15T09:14:59.458Z,9.50
2022-10-15T09:17:33.233Z,10.53
2022-10-15T09:20:06.599Z,10.10
2022-10-15T09:22:36.463Z,10.10
2022-10-15T09:25:16.493Z,8.77
2022-10-15T09:27:48.545Z,8.37
2022-10-15T09:30:28.703Z,10.43
2022-10-15T09:33:04.472Z,13.57
2022-10-15T09:35:38.647Z,11.17
2022-10-15T09:38:27.117Z,12.83
2022-10-15T09:41:05.630Z,13.73
2022-10-15T09:43:41.084Z,13.70
2022-10-15T09:46:10.921Z,15.53
2022-10-15T09:48:47.419Z,14.33
2022-10-15T09:51:26.188Z,11.50
2022-10-15T09:54:04.707Z,10.40
2022-10-15T09:56:37.336Z,11.03
2022-10-15T09:59:08.957Z,10.37
2022-10-15T10:01:38.446Z,7.70
2022-10-15T10:04:18.889Z,9.80
2022-10-15T10:06:51.209Z,7.70
2022-10-15T10:09:22.607Z,7.73
2022-10-15T10:11:54.218Z,7.47
2022-10-15T10:14:29.040Z,6.77
2022-10-15T10:17:09.626Z,8.83
2022-10-15T10:19:39.437Z,8.07
2022-10-15T10:22:14.840Z,8.03
2022-10-15T10:24:43.420Z,12.07
2022-10-15T10:27:24.786Z,5.67
2022-10-15T10:29:59.345Z,4.70
2022-10-15T10:32:31.931Z,5.37
2022-10-15T10:35:02.539Z,4.50
2022-10-15T10:37:42.861Z,4.17
2022-10-15T10:40:26.454Z,3.83
2022-10-15T10:43:12.801Z,4.90
2022-10-15T10:45:54.621Z,6.43
2022-10-15T10:48:26.200Z,4.83
2022-10-15T10:51:12.921Z,4.23
2022-10-15T10:53:50.847Z,6.27
2022-10-15T10:56:24.057Z,5.73
2022-10-15T10:59:03.395Z,3.87
2022-10-15T11:01:35.954Z,5.47
2022-10-15T11:04:12.996Z,4.70
2022-10-15T11:06:57.592Z,6.70
2022-10-15T11:09:52.244Z,3.60
2022-10-15T11:12:51.046Z,5.13
2022-10-15T11:15:45.853Z,9.73
2022-10-15T11:24:22.036Z,4.33
2022-10-15T11:27:15.883Z,5.20
2022-10-15T11:29:58.017Z,3.67
2022-10-15T11:33:01.963Z,3.67
2022-10-15T11:35:53.030Z,4.03
2022-10-15T11:38:33.205Z,3.20
2022-10-15T11:41:27.528Z,4.40
2022-10-15T11:44:23.659Z,4.07
2022-10-15T11:47:04.079Z,2.83
2022-10-15T11:49:44.737Z,5.70
2022-10-15T11:52:36.403Z,2.73
2022-10-15T11:55:13.580Z,4.20
2022-10-15T11:57:44.487Z,2.33
2022-10-15T12:00:27.605Z,3.40
2022-10-15T12:02:57.873Z,2.10
2022-10-15T12:05:34.813Z,1.80
2022-10-15T12:08:06.291Z,2.87
2022-10-15T12:10:51.898Z,1.97
2022-10-15T12:13:28.421Z,4.20
2022-10-15T12:16:10.019Z,1.47
2022-10-15T12:18:45.065Z,1.67
2022-10-15T12:21:31.987Z,2.00
2022-10-15T12:24:03.416Z,4.87
2022-10-15T12:26:33.973Z,1.77
2022-10-15T12:29:07.692Z,2.30
2022-10-15T12:31:48.679Z,3.03
2022-10-15T12:34:30.166Z,1.00
2022-10-15T12:37:04.532Z,3.93
2022-10-15T12:40:04.281Z,0.93
2022-10-15T12:42:31.013Z,2.30
2022-10-15T12:45:03.845Z,2.27
2022-10-15T12:47:49.975Z,0.90
2022-10-15T12:50:21.230Z,1.67
2022-10-15T12:52:59.887Z,1.97
2022-10-15T12:55:35.819Z,3.30
2022-10-15T12:58:07.662Z,1.27
2022-10-15T13:00:44.551Z,1.30
2022-10-15T13:03:22.750Z,1.03
2022-10-15T13:05:54.134Z,3.07
2022-10-15T13:08:35.989Z,1.20
2022-10-15T13:11:06.130Z,1.23
2022-10-15T13:13:36.946Z,0.87
2022-10-15T13:16:10.647Z,2.33
2022-10-15T13:18:54.686Z,2.17
2022-10-15T13:21:23.464Z,2.20
2022-10-15T13:23:53.121Z,0.83
2022-10-15T13:26:27.763Z,0.90
2022-10-15T13:28:58.905Z,0.77
2022-10-15T13:31:31.079Z,0.90
2022-10-15T13:34:02.982Z,1.00
2022-10-15T13:36:33.555Z,1.53
2022-10-15T13:39:06.176Z,1.00
2022-10-15T13:41:40.529Z,1.23
2022-10-15T13:44:22.606Z,2.40
2022-10-15T13:46:52.737Z,3.10
2022-10-15T13:49:24.163Z,4.93
2022-10-15T13:51:55.852Z,14.40
2022-10-15T13:54:26.907Z,8.13
2022-10-15T13:56:59.249Z,17.27
2022-10-15T13:59:30.501Z,13.03
2022-10-15T14:02:04.283Z,3.33
2022-10-15T14:04:34.237Z,13.60
2022-10-15T14:07:05.539Z,3.47
2022-10-15T14:09:36.489Z,19.63
2022-10-15T14:12:09.943Z,1.53
2022-10-15T14:14:41.800Z,4.87
2022-10-15T14:17:17.531Z,0.97
2022-10-15T14:20:02.204Z,0.67
2022-10-15T14:22:39.705Z,1.63
2022-10-15T14:27:46.915Z,2.27
2022-10-15T14:30:16.890Z,2.60
2022-10-15T14:32:49.748Z,1.97
2022-10-15T14:35:26.503Z,1.30
2022-10-15T14:38:02.953Z,3.23
2022-10-15T14:40:32.069Z,1.90
2022-10-15T14:43:07.706Z,5.13
2022-10-15T14:45:42.195Z,2.10
2022-10-15T14:48:12.970Z,2.17
2022-10-15T14:50:44.657Z,1.80
2022-10-15T14:53:20.336Z,1.33
2022-10-15T14:55:52.551Z,1.87
2022-10-15T14:58:23.988Z,3.80
2022-10-15T15:00:59.272Z,1.70
2022-10-15T15:03:30.842Z,2.10
2022-10-15T15:06:01.103Z,2.33
2022-10-15T15:08:30.319Z,1.37
2022-10-15T15:11:02.979Z,1.97
2022-10-15T15:13:39.175Z,2.33
2022-10-15T15:16:08.892Z,3.80
2022-10-15T15:18:37.852Z,4.53
2022-10-15T15:21:14.968Z,2.20
2022-10-15T15:23:45.463Z,2.90
2022-10-15T15:26:14.350Z,2.50
2022-10-15T15:28:45.245Z,1.77
2022-10-15T15:31:19.386Z,6.33
2022-10-15T15:33:48.207Z,2.30
2022-10-15T15:36:23.435Z,0.83
2022-10-15T15:38:52.888Z,0.63
2022-10-15T15:41:23.987Z,1.67
2022-10-15T15:43:54.992Z,0.90
2022-10-15T15:46:23.693Z,1.60
2022-10-15T15:48:52.342Z,2.13
2022-10-15T15:51:24.589Z,0.87
2022-10-15T15:53:53.449Z,1.00
2022-10-15T15:56:22.927Z,0.53
2022-10-15T15:58:53.247Z,1.20
2022-10-15T16:01:21.968Z,0.67
2022-10-15T16:03:50.422Z,1.43
2022-10-15T16:06:18.904Z,3.37
2022-10-15T16:08:47.453Z,1.63
2022-10-15T16:11:15.821Z,4.43
2022-10-15T16:13:44.236Z,1.57
2022-10-15T16:16:14.545Z,1.43
2022-10-15T16:18:43.836Z,0.73
2022-10-15T16:21:12.746Z,1.83
2022-10-15T16:23:42.487Z,2.93
2022-10-15T16:26:11.137Z,4.03
2022-10-15T16:28:39.771Z,3.13
2022-10-15T16:31:17.416Z,3.70
2022-10-15T16:33:46.694Z,3.33
2022-10-15T16:36:16.128Z,2.50
2022-10-15T16:38:46.224Z,3.67
2022-10-15T16:41:19.633Z,9.20
2022-10-15T16:43:49.147Z,9.60
2022-10-15T16:46:20.991Z,7.93
2022-10-15T16:48:55.376Z,6.30
2022-10-15T16:51:25.181Z,3.10
2022-10-15T16:53:54.743Z,8.13
2022-10-15T16:56:25.109Z,4.37
2022-10-15T16:58:54.239Z,2.77
2022-10-15T17:01:27.396Z,3.27
2022-10-15T17:03:56.783Z,22.37
2022-10-15T17:06:28.394Z,9.70
2022-10-15T17:08:59.202Z,5.17
2022-10-15T17:11:30.396Z,1.57
2022-10-15T17:14:01.337Z,3.07
2022-10-15T17:16:34.663Z,5.17
2022-10-15T17:19:03.365Z,5.57
2022-10-15T17:21:32.604Z,8.67
2022-10-15T17:24:03.262Z,10.07
2022-10-15T17:26:36.416Z,8.03
2022-10-15T17:29:05.650Z,13.40
2022-10-15T17:31:35.901Z,8.17
2022-10-15T17:34:06.884Z,5.80
2022-10-15T17:36:40.781Z,7.57
2022-10-15T17:39:09.440Z,5.83
2022-10-15T17:41:38.323Z,13.17
2022-10-15T17:44:07.113Z,8.90
2022-10-15T17:46:37.282Z,13.87
2022-10-15T17:49:06.265Z,5.63
2022-10-15T17:51:35.741Z,9.70
2022-10-15T17:54:07.057Z,10.37
2022-10-15T17:56:36.865Z,5.47
2022-10-15T17:59:07.293Z,8.00
2022-10-15T18:01:57.369Z,9.77
2022-10-15T18:04:28.409Z,10.30
2022-10-15T18:06:56.959Z,7.80
2022-10-15T18:09:26.018Z,11.10
2022-10-15T18:11:57.174Z,10.13
2022-10-15T18:14:29.779Z,7.10
2022-10-15T18:17:00.123Z,9.07
2022-10-15T18:19:28.851Z,4.33
2022-10-15T18:21:57.891Z,4.33
2022-10-15T18:24:26.578Z,4.77
2022-10-15T18:26:55.398Z,7.60
2022-10-15T18:29:25.530Z,6.97
2022-10-15T18:31:57.962Z,3.33
2022-10-15T18:34:30.449Z,9.03
2022-10-15T18:36:58.932Z,8.50
2022-10-15T18:39:27.905Z,3.87
2022-10-15T18:41:56.729Z,6.07
2022-10-15T18:44:27.895Z,4.87
2022-10-15T18:46:56.431Z,4.50
2022-10-15T18:49:25.165Z,9.00
2022-10-15T18:51:55.535Z,7.53
2022-10-15T18:54:24.166Z,6.73
2022-10-15T18:56:53.946Z,5.63
2022-10-15T18:59:22.825Z,7.07
2022-10-15T19:01:53.814Z,6.77
2022-10-15T19:04:24.183Z,5.57
2022-10-15T19:06:57.065Z,6.30
2022-10-15T19:09:27.599Z,7.13
2022-10-15T19:11:57.820Z,10.30
2022-10-15T19:14:29.085Z,6.67
2022-10-15T19:16:58.290Z,6.27
2022-10-15T19:19:27.607Z,6.17
2022-10-15T19:22:00.108Z,6.60
2022-10-15T19:24:29.190Z,9.67
2022-10-15T19:26:58.944Z,6.30
2022-10-15T19:29:31.495Z,10.80
2022-10-15T19:32:03.994Z,8.53
2022-10-15T19:34:34.873Z,10.57
2022-10-15T19:37:04.991Z,7.33
2022-10-15T19:39:38.052Z,8.47
2022-10-15T19:42:06.856Z,12.17
2022-10-15T19:44:35.523Z,8.73
2022-10-15T19:47:04.126Z,8.47
2022-10-15T19:49:34.050Z,9.60
2022-10-15T19:52:02.456Z,9.17
2022-10-15T19:54:32.537Z,7.60
2022-10-15T19:57:01.181Z,6.07
2022-10-15T19:59:30.158Z,11.93
2022-10-15T20:01:59.152Z,7.93
2022-10-15T20:04:29.180Z,8.10
2022-10-15T20:06:57.843Z,12.17
2022-10-15T20:09:26.376Z,8.00
2022-10-15T20:11:56.512Z,6.67
2022-10-15T20:14:25.664Z,10.63
2022-10-15T20:16:54.206Z,11.87
2022-10-15T20:19:23.287Z,11.50
2022-10-15T20:21:51.881Z,6.80
2022-10-15T20:24:20.470Z,7.10
2022-10-15T20:26:50.978Z,9.77
2022-10-15T20:29:21.846Z,11.63
2022-10-15T20:31:51.511Z,6.30
2022-10-15T20:34:20.359Z,7.53
2022-10-15T20:36:53.495Z,7.87
2022-10-15T20:39:23.060Z,7.73
2022-10-15T20:41:52.321Z,6.73
2022-10-15T20:44:22.152Z,6.47
2022-10-15T20:46:53.511Z,9.80
2022-10-15T20:49:28.070Z,6.93
2022-10-15T20:51:59.272Z,9.53
2022-10-15T20:54:28.103Z,11.47
2022-10-15T20:56:57.250Z,6.87
2022-10-15T20:59:30.165Z,12.07
2022-10-15T21:01:59.256Z,5.43
2022-10-15T21:04:27.925Z,7.37
2022-10-15T21:06:57.421Z,9.47
2022-10-15T21:09:26.127Z,7.27
2022-10-15T21:11:54.713Z,8.07
2022-10-15T21:14:23.405Z,10.80
2022-10-15T21:16:53.513Z,7.77
2022-10-15T21:19:21.991Z,8.00
2022-10-15T21:21:50.584Z,7.27
2022-10-15T21:24:19.343Z,4.47
2022-10-15T21:26:48.615Z,7.43
2022-10-15T21:29:17.572Z,4.70
2022-10-15T21:31:47.252Z,9.67
2022-10-15T21:34:17.399Z,9.57
2022-10-15T21:36:45.884Z,8.77
2022-10-15T21:39:14.537Z,6.60
2022-10-15T21:41:43.155Z,13.80
2022-10-15T21:44:12.146Z,6.90
2022-10-15T21:46:41.686Z,7.60
2022-10-15T21:49:10.413Z,12.37
2022-10-15T21:51:46.463Z,9.57
2022-10-15T21:54:15.050Z,4.33
2022-10-15T21:56:43.724Z,12.27
2022-10-15T21:59:13.620Z,8.73
2022-10-15T22:01:44.774Z,14.57
2022-10-15T22:04:13.343Z,6.30
2022-10-15T22:06:43.267Z,11.60
2022-10-15T22:09:12.739Z,9.27
2022-10-15T22:11:42.662Z,11.07
2022-10-15T22:14:16.400Z,8.77
2022-10-15T22:16:44.996Z,12.50
2022-10-15T22:19:16.731Z,10.00
2022-10-15T22:21:47.080Z,10.10
2022-10-15T22:24:18.228Z,12.07
2022-10-15T22:26:49.401Z,10.87
2022-10-15T22:29:21.818Z,15.70
2022-10-15T22:31:51.242Z,7.77
2022-10-15T22:34:20.402Z,14.43
2022-10-15T22:36:51.062Z,13.77
2022-10-15T22:39:20.797Z,11.97
2022-10-15T22:41:49.958Z,16.40
2022-10-15T22:44:20.924Z,10.73
2022-10-15T22:46:50.307Z,11.73
2022-10-15T22:49:20.957Z,14.30
2022-10-15T22:51:51.659Z,16.03
2022-10-15T22:54:23.038Z,14.70
2022-10-15T22:56:52.458Z,10.57
2022-10-15T22:59:21.568Z,12.23
2022-10-15T23:01:51.389Z,10.90
2022-10-15T23:04:20.014Z,10.63
2022-10-15T23:06:48.611Z,13.67
2022-10-15T23:09:20.091Z,11.43
2022-10-15T23:11:48.834Z,8.40
2022-10-15T23:14:18.469Z,9.30
2022-10-15T23:16:48.694Z,10.27
2022-10-15T23:19:19.021Z,13.50
2022-10-15T23:21:50.130Z,8.77
2022-10-15T23:24:22.236Z,12.93
2022-10-15T23:26:51.480Z,8.63
2022-10-15T23:29:22.156Z,9.87
2022-10-15T23:31:51.490Z,11.30
2022-10-15T23:34:22.133Z,10.50
2022-10-15T23:36:50.823Z,9.33
2022-10-15T23:39:22.729Z,8.33
2022-10-15T23:41:51.782Z,21.37
2022-10-15T23:44:21.002Z,11.37
2022-10-15T23:46:49.613Z,7.43
2022-10-15T23:49:19.361Z,7.80
2022-10-15T23:51:48.526Z,11.90
2022-10-15T23:54:19.003Z,8.10
2022-10-15T23:56:49.035Z,10.87
2022-10-15T23:59:18.401Z,8.07
